sensor_id;sensor_type;location;lat;lon;timestamp;P1;durP1;ratioP1;P2;durP2;ratioP2
36829;SDS011;22767;47.328;9.640;2022-09-09T00:04:11;1.95;;;0.70;;
36829;SDS011;22767;47.328;9.640;2022-09-09T00:07:04;4.30;;;0.90;;
36829;SDS011;22767;47.328;9.640;2022-09-09T00:24:55;2.90;;;0.63;;
36829;SDS011;22767;47.328;9.640;2022-09-09T00:27:47;2.30;;;0.75;;
36829;SDS011;22767;47.328;9.640;2022-09-09T00:30:34;1.70;;;0.63;;
36829;SDS011;22767;47.328;9.640;2022-09-09T00:33:22;3.00;;;0.70;;
36829;SDS011;22767;47.328;9.640;2022-09-09T00:36:14;1.33;;;0.80;;
36829;SDS011;22767;47.328;9.640;2022-09-09T00:39:03;2.63;;;0.85;;
36829;SDS011;22767;47.328;9.640;2022-09-09T00:47:39;2.80;;;0.80;;
36829;SDS011;22767;47.328;9.640;2022-09-09T00:50:31;3.47;;;0.80;;
36829;SDS011;22767;47.328;9.640;2022-09-09T00:53:28;0.80;;;0.63;;
36829;SDS011;22767;47.328;9.640;2022-09-09T00:56:18;1.27;;;0.65;;
36829;SDS011;22767;47.328;9.640;2022-09-09T01:01:56;3.25;;;0.95;;
36829;SDS011;22767;47.328;9.640;2022-09-09T01:04:43;2.28;;;0.65;;
36829;SDS011;22767;47.328;9.640;2022-09-09T01:07:30;3.22;;;0.70;;
36829;SDS011;22767;47.328;9.640;2022-09-09T01:10:24;1.70;;;0.80;;
36829;SDS011;22767;47.328;9.640;2022-09-09T01:13:28;2.58;;;0.90;;
36829;SDS011;22767;47.328;9.640;2022-09-09T01:16:19;1.65;;;0.63;;
36829;SDS011;22767;47.328;9.640;2022-09-09T01:19:05;1.08;;;0.70;;
36829;SDS011;22767;47.328;9.640;2022-09-09T01:21:56;1.63;;;0.80;;
36829;SDS011;22767;47.328;9.640;2022-09-09T01:27:33;2.90;;;0.60;;
36829;SDS011;22767;47.328;9.640;2022-09-09T01:30:21;1.45;;;0.60;;
36829;SDS011;22767;47.328;9.640;2022-09-09T01:33:10;2.80;;;1.10;;
36829;SDS011;22767;47.328;9.640;2022-09-09T01:36:09;1.50;;;0.80;;
36829;SDS011;22767;47.328;9.640;2022-09-09T01:38:56;2.30;;;0.88;;
36829;SDS011;22767;47.328;9.640;2022-09-09T01:41:43;2.72;;;1.05;;
36829;SDS011;22767;47.328;9.640;2022-09-09T01:44:29;3.50;;;0.60;;
36829;SDS011;22767;47.328;9.640;2022-09-09T01:47:16;2.95;;;0.73;;
36829;SDS011;22767;47.328;9.640;2022-09-09T01:50:03;6.05;;;1.20;;
36829;SDS011;22767;47.328;9.640;2022-09-09T01:52:50;1.00;;;0.80;;
36829;SDS011;22767;47.328;9.640;2022-09-09T01:55:42;3.05;;;0.68;;
36829;SDS011;22767;47.328;9.640;2022-09-09T02:04:23;3.55;;;0.88;;
36829;SDS011;22767;47.328;9.640;2022-09-09T02:07:47;3.80;;;1.15;;
36829;SDS011;22767;47.328;9.640;2022-09-09T02:10:35;1.45;;;1.08;;
36829;SDS011;22767;47.328;9.640;2022-09-09T02:13:23;2.88;;;0.98;;
36829;SDS011;22767;47.328;9.640;2022-09-09T02:16:17;2.10;;;0.82;;
36829;SDS011;22767;47.328;9.640;2022-09-09T02:22:00;1.38;;;0.80;;
36829;SDS011;22767;47.328;9.640;2022-09-09T02:24:47;1.38;;;0.70;;
36829;SDS011;22767;47.328;9.640;2022-09-09T02:27:35;3.28;;;1.05;;
36829;SDS011;22767;47.328;9.640;2022-09-09T02:30:21;3.30;;;0.70;;
36829;SDS011;22767;47.328;9.640;2022-09-09T02:33:08;1.73;;;0.65;;
36829;SDS011;22767;47.328;9.640;2022-09-09T02:35:55;1.30;;;0.90;;
36829;SDS011;22767;47.328;9.640;2022-09-09T02:38:47;3.50;;;0.80;;
36829;SDS011;22767;47.328;9.640;2022-09-09T02:41:39;6.22;;;0.98;;
36829;SDS011;22767;47.328;9.640;2022-09-09T02:44:26;2.97;;;0.98;;
36829;SDS011;22767;47.328;9.640;2022-09-09T02:47:25;3.38;;;1.02;;
36829;SDS011;22767;47.328;9.640;2022-09-09T02:50:45;5.47;;;1.00;;
36829;SDS011;22767;47.328;9.640;2022-09-09T02:53:43;1.50;;;0.80;;
36829;SDS011;22767;47.328;9.640;2022-09-09T02:56:36;4.97;;;0.85;;
36829;SDS011;22767;47.328;9.640;2022-09-09T02:59:25;2.60;;;0.82;;
36829;SDS011;22767;47.328;9.640;2022-09-09T03:02:12;2.60;;;0.70;;
36829;SDS011;22767;47.328;9.640;2022-09-09T03:04:59;3.45;;;0.82;;
36829;SDS011;22767;47.328;9.640;2022-09-09T03:07:46;2.95;;;0.60;;
36829;SDS011;22767;47.328;9.640;2022-09-09T03:10:32;1.13;;;0.73;;
36829;SDS011;22767;47.328;9.640;2022-09-09T03:13:20;2.97;;;0.85;;
36829;SDS011;22767;47.328;9.640;2022-09-09T03:16:06;1.98;;;0.80;;
36829;SDS011;22767;47.328;9.640;2022-09-09T03:18:53;4.32;;;1.27;;
36829;SDS011;22767;47.328;9.640;2022-09-09T03:21:39;4.50;;;1.60;;
36829;SDS011;22767;47.328;9.640;2022-09-09T03:24:25;3.22;;;1.15;;
36829;SDS011;22767;47.328;9.640;2022-09-09T03:27:12;1.17;;;0.80;;
36829;SDS011;22767;47.328;9.640;2022-09-09T03:29:59;2.05;;;0.95;;
36829;SDS011;22767;47.328;9.640;2022-09-09T03:32:49;5.55;;;0.70;;
36829;SDS011;22767;47.328;9.640;2022-09-09T03:35:35;2.28;;;0.75;;
36829;SDS011;22767;47.328;9.640;2022-09-09T03:38:22;2.63;;;0.85;;
36829;SDS011;22767;47.328;9.640;2022-09-09T03:41:09;5.20;;;0.95;;
36829;SDS011;22767;47.328;9.640;2022-09-09T03:43:55;3.35;;;0.73;;
36829;SDS011;22767;47.328;9.640;2022-09-09T03:46:42;1.08;;;0.77;;
36829;SDS011;22767;47.328;9.640;2022-09-09T03:49:28;3.15;;;0.88;;
36829;SDS011;22767;47.328;9.640;2022-09-09T03:52:15;2.35;;;0.80;;
36829;SDS011;22767;47.328;9.640;2022-09-09T03:55:02;3.97;;;1.10;;
36829;SDS011;22767;47.328;9.640;2022-09-09T03:57:48;4.93;;;1.02;;
36829;SDS011;22767;47.328;9.640;2022-09-09T04:00:34;2.63;;;0.75;;
36829;SDS011;22767;47.328;9.640;2022-09-09T04:03:21;2.45;;;0.98;;
36829;SDS011;22767;47.328;9.640;2022-09-09T04:06:10;4.03;;;0.85;;
36829;SDS011;22767;47.328;9.640;2022-09-09T04:08:58;2.28;;;0.70;;
36829;SDS011;22767;47.328;9.640;2022-09-09T04:11:45;4.63;;;0.80;;
36829;SDS011;22767;47.328;9.640;2022-09-09T04:14:31;3.38;;;0.90;;
36829;SDS011;22767;47.328;9.640;2022-09-09T04:17:17;1.38;;;0.80;;
36829;SDS011;22767;47.328;9.640;2022-09-09T04:20:04;1.23;;;0.68;;
36829;SDS011;22767;47.328;9.640;2022-09-09T04:22:53;2.47;;;0.80;;
36829;SDS011;22767;47.328;9.640;2022-09-09T04:25:50;3.95;;;1.20;;
36829;SDS011;22767;47.328;9.640;2022-09-09T04:28:36;4.15;;;0.90;;
36829;SDS011;22767;47.328;9.640;2022-09-09T04:31:23;2.88;;;0.93;;
36829;SDS011;22767;47.328;9.640;2022-09-09T04:34:09;4.97;;;1.30;;
36829;SDS011;22767;47.328;9.640;2022-09-09T04:36:56;6.65;;;1.10;;
36829;SDS011;22767;47.328;9.640;2022-09-09T04:39:42;4.20;;;1.02;;
36829;SDS011;22767;47.328;9.640;2022-09-09T04:42:28;2.17;;;0.90;;
36829;SDS011;22767;47.328;9.640;2022-09-09T04:45:15;4.90;;;1.25;;
36829;SDS011;22767;47.328;9.640;2022-09-09T04:48:02;2.67;;;1.33;;
36829;SDS011;22767;47.328;9.640;2022-09-09T04:56:27;2.28;;;1.35;;
36829;SDS011;22767;47.328;9.640;2022-09-09T04:59:13;5.85;;;1.50;;
36829;SDS011;22767;47.328;9.640;2022-09-09T05:02:00;4.57;;;1.35;;
36829;SDS011;22767;47.328;9.640;2022-09-09T05:04:48;4.38;;;1.40;;
36829;SDS011;22767;47.328;9.640;2022-09-09T05:07:35;2.95;;;1.33;;
36829;SDS011;22767;47.328;9.640;2022-09-09T05:10:22;5.55;;;1.33;;
36829;SDS011;22767;47.328;9.640;2022-09-09T05:13:08;2.03;;;0.82;;
36829;SDS011;22767;47.328;9.640;2022-09-09T05:15:55;2.70;;;0.70;;
36829;SDS011;22767;47.328;9.640;2022-09-09T05:18:41;3.25;;;0.90;;
36829;SDS011;22767;47.328;9.640;2022-09-09T05:21:28;1.83;;;0.95;;
36829;SDS011;22767;47.328;9.640;2022-09-09T05:24:16;3.55;;;1.20;;
36829;SDS011;22767;47.328;9.640;2022-09-09T05:27:02;8.75;;;1.48;;
36829;SDS011;22767;47.328;9.640;2022-09-09T05:29:51;2.15;;;1.10;;
36829;SDS011;22767;47.328;9.640;2022-09-09T05:32:37;3.15;;;1.00;;
36829;SDS011;22767;47.328;9.640;2022-09-09T05:35:24;2.75;;;0.90;;
36829;SDS011;22767;47.328;9.640;2022-09-09T05:38:10;1.77;;;0.80;;
36829;SDS011;22767;47.328;9.640;2022-09-09T05:40:56;4.00;;;0.93;;
36829;SDS011;22767;47.328;9.640;2022-09-09T05:43:43;2.03;;;0.80;;
36829;SDS011;22767;47.328;9.640;2022-09-09T05:46:31;1.40;;;0.60;;
36829;SDS011;22767;47.328;9.640;2022-09-09T05:49:18;2.08;;;0.50;;
36829;SDS011;22767;47.328;9.640;2022-09-09T05:52:04;2.63;;;0.60;;
36829;SDS011;22767;47.328;9.640;2022-09-09T05:54:51;1.40;;;0.68;;
36829;SDS011;22767;47.328;9.640;2022-09-09T05:57:40;4.13;;;0.80;;
36829;SDS011;22767;47.328;9.640;2022-09-09T06:00:27;1.13;;;0.60;;
36829;SDS011;22767;47.328;9.640;2022-09-09T06:03:16;4.78;;;0.63;;
36829;SDS011;22767;47.328;9.640;2022-09-09T06:06:04;1.77;;;0.47;;
36829;SDS011;22767;47.328;9.640;2022-09-09T06:08:52;2.60;;;0.50;;
36829;SDS011;22767;47.328;9.640;2022-09-09T06:11:39;2.75;;;0.60;;
36829;SDS011;22767;47.328;9.640;2022-09-09T06:14:25;2.40;;;0.88;;
36829;SDS011;22767;47.328;9.640;2022-09-09T06:17:12;2.17;;;0.70;;
36829;SDS011;22767;47.328;9.640;2022-09-09T06:19:58;1.15;;;0.35;;
36829;SDS011;22767;47.328;9.640;2022-09-09T06:22:45;2.20;;;0.70;;
36829;SDS011;22767;47.328;9.640;2022-09-09T06:25:34;4.53;;;0.80;;
36829;SDS011;22767;47.328;9.640;2022-09-09T06:28:20;3.58;;;0.70;;
36829;SDS011;22767;47.328;9.640;2022-09-09T06:31:07;1.95;;;0.65;;
36829;SDS011;22767;47.328;9.640;2022-09-09T06:33:54;3.85;;;1.13;;
36829;SDS011;22767;47.328;9.640;2022-09-09T06:36:40;5.10;;;0.90;;
36829;SDS011;22767;47.328;9.640;2022-09-09T06:39:27;3.08;;;0.90;;
36829;SDS011;22767;47.328;9.640;2022-09-09T06:42:14;2.53;;;0.80;;
36829;SDS011;22767;47.328;9.640;2022-09-09T06:45:01;1.92;;;0.65;;
36829;SDS011;22767;47.328;9.640;2022-09-09T06:47:47;4.65;;;1.00;;
36829;SDS011;22767;47.328;9.640;2022-09-09T06:50:33;1.88;;;0.60;;
36829;SDS011;22767;47.328;9.640;2022-09-09T06:53:20;2.28;;;0.63;;
36829;SDS011;22767;47.328;9.640;2022-09-09T06:58:56;2.33;;;0.60;;
36829;SDS011;22767;47.328;9.640;2022-09-09T07:01:43;2.67;;;0.68;;
36829;SDS011;22767;47.328;9.640;2022-09-09T07:04:30;5.05;;;1.05;;
36829;SDS011;22767;47.328;9.640;2022-09-09T07:07:17;5.43;;;0.90;;
36829;SDS011;22767;47.328;9.640;2022-09-09T07:10:03;2.25;;;0.75;;
36829;SDS011;22767;47.328;9.640;2022-09-09T07:12:50;3.97;;;1.00;;
36829;SDS011;22767;47.328;9.640;2022-09-09T07:15:41;3.13;;;0.70;;
36829;SDS011;22767;47.328;9.640;2022-09-09T07:18:27;3.85;;;1.15;;
36829;SDS011;22767;47.328;9.640;2022-09-09T07:21:14;2.92;;;0.80;;
36829;SDS011;22767;47.328;9.640;2022-09-09T07:24:01;5.90;;;1.55;;
36829;SDS011;22767;47.328;9.640;2022-09-09T07:26:48;3.33;;;0.70;;
36829;SDS011;22767;47.328;9.640;2022-09-09T07:29:34;4.00;;;0.70;;
36829;SDS011;22767;47.328;9.640;2022-09-09T07:32:20;2.05;;;0.70;;
36829;SDS011;22767;47.328;9.640;2022-09-09T07:35:07;4.07;;;1.23;;
36829;SDS011;22767;47.328;9.640;2022-09-09T07:37:53;4.32;;;1.00;;
36829;SDS011;22767;47.328;9.640;2022-09-09T07:40:39;4.13;;;1.00;;
36829;SDS011;22767;47.328;9.640;2022-09-09T07:43:26;8.50;;;1.73;;
36829;SDS011;22767;47.328;9.640;2022-09-09T07:46:13;7.38;;;1.08;;
36829;SDS011;22767;47.328;9.640;2022-09-09T07:49:00;4.22;;;0.80;;
36829;SDS011;22767;47.328;9.640;2022-09-09T07:51:47;1.88;;;0.80;;
36829;SDS011;22767;47.328;9.640;2022-09-09T07:54:34;2.95;;;0.82;;
36829;SDS011;22767;47.328;9.640;2022-09-09T07:57:21;3.45;;;0.90;;
36829;SDS011;22767;47.328;9.640;2022-09-09T08:00:07;1.55;;;0.60;;
36829;SDS011;22767;47.328;9.640;2022-09-09T08:02:55;2.95;;;0.90;;
36829;SDS011;22767;47.328;9.640;2022-09-09T08:05:42;1.73;;;0.60;;
36829;SDS011;22767;47.328;9.640;2022-09-09T08:08:28;3.78;;;1.08;;
36829;SDS011;22767;47.328;9.640;2022-09-09T08:11:15;3.85;;;0.73;;
36829;SDS011;22767;47.328;9.640;2022-09-09T08:14:02;2.75;;;0.75;;
36829;SDS011;22767;47.328;9.640;2022-09-09T08:16:49;2.28;;;1.00;;
36829;SDS011;22767;47.328;9.640;2022-09-09T08:19:35;3.75;;;0.77;;
36829;SDS011;22767;47.328;9.640;2022-09-09T08:22:22;2.70;;;0.93;;
36829;SDS011;22767;47.328;9.640;2022-09-09T08:25:09;5.88;;;1.17;;
36829;SDS011;22767;47.328;9.640;2022-09-09T08:27:57;2.33;;;1.10;;
36829;SDS011;22767;47.328;9.640;2022-09-09T08:30:43;3.72;;;1.27;;
36829;SDS011;22767;47.328;9.640;2022-09-09T08:33:31;4.05;;;1.08;;
36829;SDS011;22767;47.328;9.640;2022-09-09T08:36:19;2.78;;;0.88;;
36829;SDS011;22767;47.328;9.640;2022-09-09T08:39:06;2.78;;;1.13;;
36829;SDS011;22767;47.328;9.640;2022-09-09T08:44:52;4.22;;;0.90;;
36829;SDS011;22767;47.328;9.640;2022-09-09T08:47:52;2.80;;;1.30;;
36829;SDS011;22767;47.328;9.640;2022-09-09T08:50:40;6.03;;;0.90;;
36829;SDS011;22767;47.328;9.640;2022-09-09T08:53:29;3.22;;;0.93;;
36829;SDS011;22767;47.328;9.640;2022-09-09T08:56:24;3.03;;;0.77;;
36829;SDS011;22767;47.328;9.640;2022-09-09T08:59:11;2.55;;;0.88;;
36829;SDS011;22767;47.328;9.640;2022-09-09T09:02:03;4.00;;;0.70;;
36829;SDS011;22767;47.328;9.640;2022-09-09T09:05:04;5.32;;;0.60;;
36829;SDS011;22767;47.328;9.640;2022-09-09T09:08:00;1.83;;;0.40;;
36829;SDS011;22767;47.328;9.640;2022-09-09T09:10:49;7.65;;;0.70;;
36829;SDS011;22767;47.328;9.640;2022-09-09T09:13:46;1.23;;;0.43;;
36829;SDS011;22767;47.328;9.640;2022-09-09T09:16:34;2.53;;;0.90;;
36829;SDS011;22767;47.328;9.640;2022-09-09T09:19:24;2.65;;;0.50;;
36829;SDS011;22767;47.328;9.640;2022-09-09T09:22:21;3.33;;;0.50;;
36829;SDS011;22767;47.328;9.640;2022-09-09T09:28:00;0.80;;;0.30;;
36829;SDS011;22767;47.328;9.640;2022-09-09T09:31:00;1.35;;;0.30;;
36829;SDS011;22767;47.328;9.640;2022-09-09T09:33:49;3.10;;;0.50;;
36829;SDS011;22767;47.328;9.640;2022-09-09T09:36:42;3.40;;;0.60;;
36829;SDS011;22767;47.328;9.640;2022-09-09T09:39:32;2.97;;;0.50;;
36829;SDS011;22767;47.328;9.640;2022-09-09T09:42:30;2.25;;;0.40;;
36829;SDS011;22767;47.328;9.640;2022-09-09T09:45:17;1.38;;;0.30;;
36829;SDS011;22767;47.328;9.640;2022-09-09T09:48:13;1.15;;;0.45;;
36829;SDS011;22767;47.328;9.640;2022-09-09T09:51:06;1.75;;;0.47;;
36829;SDS011;22767;47.328;9.640;2022-09-09T09:57:14;0.70;;;0.40;;
36829;SDS011;22767;47.328;9.640;2022-09-09T10:00:12;2.10;;;0.50;;
36829;SDS011;22767;47.328;9.640;2022-09-09T10:02:59;0.47;;;0.22;;
36829;SDS011;22767;47.328;9.640;2022-09-09T10:05:46;2.88;;;0.40;;
36829;SDS011;22767;47.328;9.640;2022-09-09T10:08:33;0.75;;;0.30;;
36829;SDS011;22767;47.328;9.640;2022-09-09T10:14:16;3.40;;;0.70;;
36829;SDS011;22767;47.328;9.640;2022-09-09T10:23:54;2.25;;;0.88;;
36829;SDS011;22767;47.328;9.640;2022-09-09T10:26:19;1.85;;;0.80;;
36829;SDS011;22767;47.328;9.640;2022-09-09T10:43:46;3.13;;;0.80;;
36829;SDS011;22767;47.328;9.640;2022-09-09T10:55:36;2.85;;;0.90;;
36829;SDS011;22767;47.328;9.640;2022-09-09T10:58:31;1.95;;;0.77;;
36829;SDS011;22767;47.328;9.640;2022-09-09T11:01:24;2.47;;;0.77;;
36829;SDS011;22767;47.328;9.640;2022-09-09T11:04:20;1.27;;;0.65;;
36829;SDS011;22767;47.328;9.640;2022-09-09T11:07:09;1.15;;;0.40;;
36829;SDS011;22767;47.328;9.640;2022-09-09T11:09:58;0.32;;;0.30;;
36829;SDS011;22767;47.328;9.640;2022-09-09T11:12:46;0.63;;;0.47;;
36829;SDS011;22767;47.328;9.640;2022-09-09T11:15:41;1.20;;;0.45;;
36829;SDS011;22767;47.328;9.640;2022-09-09T11:18:29;0.68;;;0.40;;
36829;SDS011;22767;47.328;9.640;2022-09-09T11:21:37;1.33;;;0.40;;
36829;SDS011;22767;47.328;9.640;2022-09-09T11:24:40;1.13;;;0.40;;
36829;SDS011;22767;47.328;9.640;2022-09-09T11:33:21;1.38;;;0.60;;
36829;SDS011;22767;47.328;9.640;2022-09-09T11:42:22;1.05;;;0.50;;
36829;SDS011;22767;47.328;9.640;2022-09-09T11:45:10;1.83;;;0.55;;
36829;SDS011;22767;47.328;9.640;2022-09-09T11:47:57;2.40;;;0.45;;
36829;SDS011;22767;47.328;9.640;2022-09-09T11:50:44;0.80;;;0.52;;
36829;SDS011;22767;47.328;9.640;2022-09-09T11:53:31;0.70;;;0.47;;
36829;SDS011;22767;47.328;9.640;2022-09-09T11:56:25;3.05;;;0.35;;
36829;SDS011;22767;47.328;9.640;2022-09-09T11:59:26;2.40;;;0.50;;
36829;SDS011;22767;47.328;9.640;2022-09-09T12:05:07;1.27;;;0.30;;
36829;SDS011;22767;47.328;9.640;2022-09-09T12:07:56;1.92;;;0.60;;
36829;SDS011;22767;47.328;9.640;2022-09-09T12:10:52;0.60;;;0.20;;
36829;SDS011;22767;47.328;9.640;2022-09-09T12:13:38;2.03;;;0.35;;
36829;SDS011;22767;47.328;9.640;2022-09-09T12:16:34;0.17;;;0.17;;
36829;SDS011;22767;47.328;9.640;2022-09-09T12:19:22;0.60;;;0.30;;
36829;SDS011;22767;47.328;9.640;2022-09-09T12:22:21;0.68;;;0.35;;
36829;SDS011;22767;47.328;9.640;2022-09-09T12:28:20;2.08;;;0.43;;
36829;SDS011;22767;47.328;9.640;2022-09-09T12:31:10;1.23;;;0.47;;
36829;SDS011;22767;47.328;9.640;2022-09-09T12:34:48;2.38;;;0.70;;
36829;SDS011;22767;47.328;9.640;2022-09-09T12:37:18;1.50;;;0.52;;
36829;SDS011;22767;47.328;9.640;2022-09-09T12:43:16;1.80;;;0.30;;
36829;SDS011;22767;47.328;9.640;2022-09-09T12:46:06;2.53;;;0.32;;
36829;SDS011;22767;47.328;9.640;2022-09-09T12:48:54;0.50;;;0.30;;
36829;SDS011;22767;47.328;9.640;2022-09-09T12:51:40;0.60;;;0.25;;
36829;SDS011;22767;47.328;9.640;2022-09-09T12:54:29;1.35;;;0.43;;
36829;SDS011;22767;47.328;9.640;2022-09-09T12:57:15;1.08;;;0.40;;
36829;SDS011;22767;47.328;9.640;2022-09-09T13:00:06;1.92;;;0.32;;
36829;SDS011;22767;47.328;9.640;2022-09-09T13:02:58;1.52;;;0.32;;
36829;SDS011;22767;47.328;9.640;2022-09-09T13:05:46;1.02;;;0.32;;
36829;SDS011;22767;47.328;9.640;2022-09-09T13:08:32;0.73;;;0.40;;
36829;SDS011;22767;47.328;9.640;2022-09-09T13:11:24;1.17;;;0.30;;
36829;SDS011;22767;47.328;9.640;2022-09-09T13:14:26;1.02;;;0.38;;
36829;SDS011;22767;47.328;9.640;2022-09-09T13:17:17;0.55;;;0.40;;
36829;SDS011;22767;47.328;9.640;2022-09-09T13:20:04;1.55;;;0.55;;
36829;SDS011;22767;47.328;9.640;2022-09-09T13:22:51;0.88;;;0.40;;
36829;SDS011;22767;47.328;9.640;2022-09-09T13:25:39;1.45;;;0.55;;
36829;SDS011;22767;47.328;9.640;2022-09-09T13:28:27;1.27;;;0.40;;
36829;SDS011;22767;47.328;9.640;2022-09-09T13:31:28;1.23;;;0.40;;
36829;SDS011;22767;47.328;9.640;2022-09-09T13:34:25;1.10;;;0.30;;
36829;SDS011;22767;47.328;9.640;2022-09-09T13:37:48;0.82;;;0.50;;
36829;SDS011;22767;47.328;9.640;2022-09-09T13:40:28;1.40;;;0.40;;
36829;SDS011;22767;47.328;9.640;2022-09-09T13:43:18;0.85;;;0.40;;
36829;SDS011;22767;47.328;9.640;2022-09-09T13:46:29;2.35;;;0.47;;
36829;SDS011;22767;47.328;9.640;2022-09-09T13:52:09;0.68;;;0.43;;
36829;SDS011;22767;47.328;9.640;2022-09-09T13:54:56;1.02;;;0.40;;
36829;SDS011;22767;47.328;9.640;2022-09-09T13:57:55;1.17;;;0.20;;
36829;SDS011;22767;47.328;9.640;2022-09-09T14:00:41;0.52;;;0.28;;
36829;SDS011;22767;47.328;9.640;2022-09-09T14:03:29;1.63;;;0.32;;
36829;SDS011;22767;47.328;9.640;2022-09-09T14:06:15;0.80;;;0.40;;
36829;SDS011;22767;47.328;9.640;2022-09-09T14:09:04;0.90;;;0.30;;
36829;SDS011;22767;47.328;9.640;2022-09-09T14:11:51;0.55;;;0.30;;
36829;SDS011;22767;47.328;9.640;2022-09-09T14:14:37;0.90;;;0.30;;
36829;SDS011;22767;47.328;9.640;2022-09-09T14:17:24;0.60;;;0.30;;
36829;SDS011;22767;47.328;9.640;2022-09-09T14:20:12;0.30;;;0.30;;
36829;SDS011;22767;47.328;9.640;2022-09-09T14:23:00;1.52;;;0.32;;
36829;SDS011;22767;47.328;9.640;2022-09-09T14:25:47;0.88;;;0.28;;
36829;SDS011;22767;47.328;9.640;2022-09-09T14:28:35;1.75;;;0.35;;
36829;SDS011;22767;47.328;9.640;2022-09-09T14:31:25;0.80;;;0.50;;
36829;SDS011;22767;47.328;9.640;2022-09-09T14:34:11;0.32;;;0.28;;
36829;SDS011;22767;47.328;9.640;2022-09-09T14:36:59;0.63;;;0.30;;
36829;SDS011;22767;47.328;9.640;2022-09-09T14:39:45;0.98;;;0.35;;
36829;SDS011;22767;47.328;9.640;2022-09-09T14:42:32;0.93;;;0.45;;
36829;SDS011;22767;47.328;9.640;2022-09-09T14:45:19;0.40;;;0.30;;
36829;SDS011;22767;47.328;9.640;2022-09-09T14:48:06;1.15;;;0.40;;
36829;SDS011;22767;47.328;9.640;2022-09-09T14:50:52;2.10;;;0.35;;
36829;SDS011;22767;47.328;9.640;2022-09-09T14:53:40;0.80;;;0.35;;
36829;SDS011;22767;47.328;9.640;2022-09-09T14:56:27;1.38;;;0.30;;
36829;SDS011;22767;47.328;9.640;2022-09-09T14:59:14;1.20;;;0.30;;
36829;SDS011;22767;47.328;9.640;2022-09-09T15:02:01;0.52;;;0.45;;
36829;SDS011;22767;47.328;9.640;2022-09-09T15:04:49;2.38;;;0.40;;
36829;SDS011;22767;47.328;9.640;2022-09-09T15:07:35;1.30;;;0.52;;
36829;SDS011;22767;47.328;9.640;2022-09-09T15:10:22;0.88;;;0.30;;
36829;SDS011;22767;47.328;9.640;2022-09-09T15:13:09;2.35;;;0.45;;
36829;SDS011;22767;47.328;9.640;2022-09-09T15:15:55;0.50;;;0.40;;
36829;SDS011;22767;47.328;9.640;2022-09-09T15:18:43;0.98;;;0.40;;
36829;SDS011;22767;47.328;9.640;2022-09-09T15:21:31;1.88;;;0.57;;
36829;SDS011;22767;47.328;9.640;2022-09-09T15:24:18;2.58;;;0.50;;
36829;SDS011;22767;47.328;9.640;2022-09-09T15:27:05;1.80;;;0.30;;
36829;SDS011;22767;47.328;9.640;2022-09-09T15:29:51;0.80;;;0.35;;
36829;SDS011;22767;47.328;9.640;2022-09-09T15:32:37;2.28;;;0.40;;
36829;SDS011;22767;47.328;9.640;2022-09-09T15:35:24;1.08;;;0.47;;
36829;SDS011;22767;47.328;9.640;2022-09-09T15:38:11;1.88;;;0.50;;
36829;SDS011;22767;47.328;9.640;2022-09-09T15:41:02;3.85;;;0.43;;
36829;SDS011;22767;47.328;9.640;2022-09-09T15:43:52;2.42;;;0.40;;
36829;SDS011;22767;47.328;9.640;2022-09-09T15:46:44;1.73;;;0.50;;
36829;SDS011;22767;47.328;9.640;2022-09-09T15:49:30;3.22;;;0.55;;
36829;SDS011;22767;47.328;9.640;2022-09-09T15:52:17;1.35;;;0.30;;
36829;SDS011;22767;47.328;9.640;2022-09-09T15:55:03;0.85;;;0.30;;
36829;SDS011;22767;47.328;9.640;2022-09-09T15:57:50;0.43;;;0.28;;
36829;SDS011;22767;47.328;9.640;2022-09-09T16:00:38;0.55;;;0.28;;
36829;SDS011;22767;47.328;9.640;2022-09-09T16:03:24;0.85;;;0.38;;
36829;SDS011;22767;47.328;9.640;2022-09-09T16:06:11;1.92;;;0.50;;
36829;SDS011;22767;47.328;9.640;2022-09-09T16:08:57;0.73;;;0.20;;
36829;SDS011;22767;47.328;9.640;2022-09-09T16:11:46;1.02;;;0.30;;
36829;SDS011;22767;47.328;9.640;2022-09-09T16:14:33;2.95;;;0.57;;
36829;SDS011;22767;47.328;9.640;2022-09-09T16:17:21;2.22;;;0.50;;
36829;SDS011;22767;47.328;9.640;2022-09-09T16:20:07;0.30;;;0.20;;
36829;SDS011;22767;47.328;9.640;2022-09-09T16:22:54;0.40;;;0.30;;
36829;SDS011;22767;47.328;9.640;2022-09-09T16:25:42;1.65;;;0.40;;
36829;SDS011;22767;47.328;9.640;2022-09-09T16:28:29;0.82;;;0.40;;
36829;SDS011;22767;47.328;9.640;2022-09-09T16:31:17;1.80;;;0.50;;
36829;SDS011;22767;47.328;9.640;2022-09-09T16:34:04;3.30;;;1.02;;
36829;SDS011;22767;47.328;9.640;2022-09-09T16:36:51;1.33;;;0.40;;
36829;SDS011;22767;47.328;9.640;2022-09-09T16:39:37;1.50;;;0.60;;
36829;SDS011;22767;47.328;9.640;2022-09-09T16:42:23;1.88;;;0.60;;
36829;SDS011;22767;47.328;9.640;2022-09-09T16:45:10;1.85;;;0.57;;
36829;SDS011;22767;47.328;9.640;2022-09-09T16:47:58;1.10;;;0.50;;
36829;SDS011;22767;47.328;9.640;2022-09-09T16:50:45;1.92;;;0.45;;
36829;SDS011;22767;47.328;9.640;2022-09-09T16:53:32;0.30;;;0.30;;
36829;SDS011;22767;47.328;9.640;2022-09-09T16:56:20;1.40;;;0.60;;
36829;SDS011;22767;47.328;9.640;2022-09-09T16:59:08;0.30;;;0.30;;
36829;SDS011;22767;47.328;9.640;2022-09-09T17:01:55;1.77;;;0.60;;
36829;SDS011;22767;47.328;9.640;2022-09-09T17:04:41;2.03;;;0.60;;
36829;SDS011;22767;47.328;9.640;2022-09-09T17:07:27;2.47;;;0.40;;
36829;SDS011;22767;47.328;9.640;2022-09-09T17:10:14;1.77;;;0.50;;
36829;SDS011;22767;47.328;9.640;2022-09-09T17:13:04;1.38;;;0.40;;
36829;SDS011;22767;47.328;9.640;2022-09-09T17:15:50;2.72;;;0.88;;
36829;SDS011;22767;47.328;9.640;2022-09-09T17:18:37;1.42;;;0.60;;
36829;SDS011;22767;47.328;9.640;2022-09-09T17:21:24;1.67;;;0.70;;
36829;SDS011;22767;47.328;9.640;2022-09-09T17:24:10;2.63;;;0.40;;
36829;SDS011;22767;47.328;9.640;2022-09-09T17:26:57;0.85;;;0.40;;
36829;SDS011;22767;47.328;9.640;2022-09-09T17:29:43;2.22;;;0.70;;
36829;SDS011;22767;47.328;9.640;2022-09-09T17:32:29;2.58;;;0.65;;
36829;SDS011;22767;47.328;9.640;2022-09-09T17:35:16;1.13;;;0.55;;
36829;SDS011;22767;47.328;9.640;2022-09-09T17:38:03;1.98;;;0.50;;
36829;SDS011;22767;47.328;9.640;2022-09-09T17:40:49;4.20;;;0.85;;
36829;SDS011;22767;47.328;9.640;2022-09-09T17:43:36;3.72;;;0.80;;
36829;SDS011;22767;47.328;9.640;2022-09-09T17:46:23;1.83;;;0.50;;
36829;SDS011;22767;47.328;9.640;2022-09-09T17:49:11;10.68;;;1.80;;
36829;SDS011;22767;47.328;9.640;2022-09-09T17:51:57;2.63;;;0.65;;
36829;SDS011;22767;47.328;9.640;2022-09-09T17:54:44;3.85;;;0.60;;
36829;SDS011;22767;47.328;9.640;2022-09-09T17:57:31;3.40;;;1.00;;
36829;SDS011;22767;47.328;9.640;2022-09-09T18:00:17;3.75;;;1.10;;
36829;SDS011;22767;47.328;9.640;2022-09-09T18:03:04;0.90;;;0.70;;
36829;SDS011;22767;47.328;9.640;2022-09-09T18:05:51;1.80;;;0.80;;
36829;SDS011;22767;47.328;9.640;2022-09-09T18:08:37;2.05;;;0.70;;
36829;SDS011;22767;47.328;9.640;2022-09-09T18:11:24;4.75;;;0.93;;
36829;SDS011;22767;47.328;9.640;2022-09-09T18:14:12;1.83;;;0.65;;
36829;SDS011;22767;47.328;9.640;2022-09-09T18:17:01;0.85;;;0.70;;
36829;SDS011;22767;47.328;9.640;2022-09-09T18:19:51;1.67;;;0.57;;
36829;SDS011;22767;47.328;9.640;2022-09-09T18:22:37;3.40;;;1.05;;
36829;SDS011;22767;47.328;9.640;2022-09-09T18:25:24;1.45;;;0.50;;
36829;SDS011;22767;47.328;9.640;2022-09-09T18:28:10;2.85;;;0.77;;
36829;SDS011;22767;47.328;9.640;2022-09-09T18:30:56;3.05;;;0.57;;
36829;SDS011;22767;47.328;9.640;2022-09-09T18:33:44;2.75;;;0.70;;
36829;SDS011;22767;47.328;9.640;2022-09-09T18:36:32;2.55;;;0.90;;
36829;SDS011;22767;47.328;9.640;2022-09-09T18:39:19;1.52;;;0.40;;
36829;SDS011;22767;47.328;9.640;2022-09-09T18:42:05;1.25;;;0.50;;
36829;SDS011;22767;47.328;9.640;2022-09-09T18:44:52;0.90;;;0.50;;
36829;SDS011;22767;47.328;9.640;2022-09-09T18:47:38;1.38;;;0.60;;
36829;SDS011;22767;47.328;9.640;2022-09-09T18:50:25;1.92;;;0.70;;